Time;durP1;ratioP1;P1;durP2;ratioP2;P2;SDS_P1;SDS_P2;PMS_P1;PMS_P2;Temp;Humidity;BMP_temperature;BMP_pressure;BME280_temperature;BME280_humidity;BME280_pressure;Samples;Min_cycle;Max_cycle;Signal;HPM_P1;HPM_P2
2023/04/18 00:00:56;;;;;;;30.00;18.80;;;;;;;2.77;100.00;102083.59;4936263;29;20091;-70
2023/04/18 00:03:23;;;;;;;34.00;19.08;;;;;;;2.74;100.00;102089.03;4934574;29;20112;-70
2023/04/18 00:05:50;;;;;;;29.30;18.42;;;;;;;2.71;100.00;102083.88;4935366;29;20084;-71
2023/04/18 00:08:17;;;;;;;32.45;19.52;;;;;;;2.68;100.00;102078.72;4936217;29;20028;-70
2023/04/18 00:10:43;;;;;;;32.53;18.58;;;;;;;2.65;100.00;102084.19;4935918;29;20067;-70
2023/04/18 00:13:10;;;;;;;30.92;19.55;;;;;;;2.53;100.00;102084.81;4936477;29;20096;-71
2023/04/18 00:15:37;;;;;;;32.88;19.65;;;;;;;2.52;100.00;102083.09;4936713;29;20074;-73
2023/04/18 00:18:04;;;;;;;41.95;19.52;;;;;;;2.51;100.00;102091.94;4937464;29;20052;-70
2023/04/18 00:20:31;;;;;;;32.55;19.23;;;;;;;2.56;100.00;102089.97;4935443;29;20072;-70
2023/04/18 00:22:59;;;;;;;31.73;19.00;;;;;;;2.53;100.00;102092.75;4936540;29;20079;-70
2023/04/18 00:25:26;;;;;;;32.38;17.70;;;;;;;2.57;100.00;102083.72;4937174;29;20119;-71
2023/04/18 00:27:52;;;;;;;30.90;18.73;;;;;;;2.57;100.00;102083.72;4936486;29;20075;-71
2023/04/18 00:30:19;;;;;;;29.42;18.58;;;;;;;2.55;100.00;102088.25;4936112;29;20055;-71
2023/04/18 00:32:45;;;;;;;34.60;19.13;;;;;;;2.48;100.00;102095.63;4936971;29;20043;-69
2023/04/18 00:35:12;;;;;;;34.22;18.77;;;;;;;2.45;100.00;102092.28;4936527;29;20038;-70
2023/04/18 00:37:38;;;;;;;33.38;18.25;;;;;;;2.41;100.00;102087.13;4935654;29;20052;-74
2023/04/18 00:40:05;;;;;;;32.78;18.20;;;;;;;2.42;100.00;102096.78;4936978;29;20032;-71
2023/04/18 00:42:32;;;;;;;32.63;18.80;;;;;;;2.42;100.00;102099.41;4936692;29;20075;-70
2023/04/18 00:44:58;;;;;;;33.30;18.85;;;;;;;2.38;100.00;102105.81;4936874;29;20054;-69
2023/04/18 00:47:25;;;;;;;38.05;19.20;;;;;;;2.37;100.00;102098.81;4931158;29;20036;-71
2023/04/18 00:49:53;;;;;;;30.30;18.63;;;;;;;2.46;100.00;102099.28;4936665;29;20080;-68
2023/04/18 00:52:20;;;;;;;31.33;18.73;;;;;;;2.45;100.00;102100.22;4936151;29;20043;-70
2023/04/18 00:54:47;;;;;;;33.50;17.85;;;;;;;2.42;100.00;102099.41;4933628;29;20064;-71
2023/04/18 00:57:13;;;;;;;32.15;18.30;;;;;;;2.43;100.00;102100.28;4938341;29;20071;-71
2023/04/18 00:59:41;;;;;;;29.00;17.60;;;;;;;2.49;100.00;102101.78;4939200;29;20052;-72
2023/04/18 01:02:07;;;;;;;29.52;18.38;;;;;;;2.48;100.00;102095.63;4939735;29;20047;-71
2023/04/18 01:04:34;;;;;;;31.50;18.85;;;;;;;2.49;100.00;102101.78;4940463;29;20040;-71
2023/04/18 01:07:24;;;;;;;29.48;18.30;;;;;;;2.49;100.00;102101.78;4940109;29;20076;-69
2023/04/18 01:09:51;;;;;;;30.85;17.55;;;;;;;2.51;100.00;102091.94;4938824;29;20092;-70
2023/04/18 01:12:18;;;;;;;34.08;19.48;;;;;;;2.44;100.00;102088.75;4932905;29;20096;-70
2023/04/18 01:14:44;;;;;;;30.48;17.92;;;;;;;2.46;100.00;102093.97;4937859;29;20054;-69
2023/04/18 01:17:12;;;;;;;31.10;18.83;;;;;;;2.48;100.00;102092.09;4938060;29;20052;-70
2023/04/18 01:19:39;;;;;;;31.95;17.98;;;;;;;2.46;100.00;102094.84;4937876;29;20062;-70
2023/04/18 01:22:06;;;;;;;36.17;19.85;;;;;;;2.45;100.00;102095.78;4938979;29;20048;-70
2023/04/18 01:24:33;;;;;;;30.40;18.13;;;;;;;2.45;100.00;102094.91;4937654;29;20044;-70
2023/04/18 01:27:01;;;;;;;35.30;18.35;;;;;;;2.38;100.00;102097.84;4938862;29;20059;-72
2023/04/18 01:29:28;;;;;;;29.42;19.23;;;;;;;2.39;100.00;102096.06;4938245;29;20099;-72
2023/04/18 01:31:54;;;;;;;29.90;18.48;;;;;;;2.34;100.00;102093.66;4938797;29;20087;-72
2023/04/18 01:34:21;;;;;;;34.33;19.50;;;;;;;2.36;100.00;102093.56;4938478;29;20054;-71
2023/04/18 01:36:47;;;;;;;31.92;18.25;;;;;;;2.34;100.00;102101.59;4933981;29;20100;-71
2023/04/18 01:39:14;;;;;;;30.70;18.77;;;;;;;2.30;100.00;102099.13;4937901;29;20096;-71
2023/04/18 01:41:41;;;;;;;27.95;18.35;;;;;;;2.22;100.00;102096.84;4937923;29;20074;-70
2023/04/18 01:44:07;;;;;;;30.67;19.10;;;;;;;2.24;100.00;102094.16;4937921;29;20044;-70
2023/04/18 01:46:34;;;;;;;33.58;19.23;;;;;;;2.19;100.00;102091.72;4937381;29;20048;-71
2023/04/18 01:49:01;;;;;;;29.60;18.27;;;;;;;2.12;100.00;102095.56;4937767;29;20055;-71
2023/04/18 01:51:28;;;;;;;36.35;19.35;;;;;;;2.14;100.00;102096.38;4937444;29;20071;-70
2023/04/18 01:53:54;;;;;;;30.60;17.98;;;;;;;2.14;100.00;102091.09;4938369;29;20125;-72
2023/04/18 01:56:21;;;;;;;27.98;18.40;;;;;;;2.10;100.00;102092.16;4939662;29;20043;-71
2023/04/18 01:58:47;;;;;;;29.67;17.45;;;;;;;2.12;100.00;102096.44;4939408;29;20036;-73
2023/04/18 02:01:14;;;;;;;30.88;18.17;;;;;;;2.14;100.00;102099.88;4939040;29;20070;-71
2023/04/18 02:03:40;;;;;;;43.05;19.63;;;;;;;2.12;100.00;102092.94;4939031;29;20028;-70
2023/04/18 02:06:07;;;;;;;29.75;17.70;;;;;;;2.08;100.00;102091.34;4922134;29;20066;-70
2023/04/18 02:08:34;;;;;;;28.48;18.25;;;;;;;2.07;100.00;102087.00;4938835;29;20062;-70
2023/04/18 02:11:01;;;;;;;33.25;18.67;;;;;;;2.01;100.00;102089.94;4938649;29;20036;-71
2023/04/18 02:13:28;;;;;;;33.70;18.65;;;;;;;2.06;100.00;102085.25;4939279;29;20038;-71
2023/04/18 02:15:54;;;;;;;33.10;18.55;;;;;;;2.08;100.00;102083.41;4939311;29;20103;-73
2023/04/18 02:18:23;;;;;;;30.65;18.60;;;;;;;2.01;100.00;102087.28;4937482;29;20036;-71
2023/04/18 02:20:50;;;;;;;30.50;18.10;;;;;;;2.05;100.00;102081.75;4939002;29;20040;-71
2023/04/18 02:23:17;;;;;;;29.42;18.38;;;;;;;2.06;100.00;102074.69;4938737;29;20104;-70
2023/04/18 02:25:44;;;;;;;33.85;18.42;;;;;;;2.03;100.00;102083.63;4937898;29;20060;-69
2023/04/18 02:28:11;;;;;;;30.75;18.70;;;;;;;2.03;100.00;102085.44;4938399;29;20137;-70
2023/04/18 02:30:37;;;;;;;31.40;18.20;;;;;;;2.04;100.00;102089.78;4938075;29;20036;-71
2023/04/18 02:33:03;;;;;;;30.90;18.52;;;;;;;1.99;100.00;102084.69;4937528;29;20075;-70
2023/04/18 02:35:30;;;;;;;29.63;18.27;;;;;;;2.04;100.00;102081.84;4937889;29;20040;-70
2023/04/18 02:37:57;;;;;;;30.42;18.20;;;;;;;2.07;100.00;102084.34;4938240;29;20092;-70
2023/04/18 02:40:23;;;;;;;31.05;17.27;;;;;;;2.08;100.00;102084.28;4937763;29;20043;-73
2023/04/18 02:42:50;;;;;;;33.47;19.00;;;;;;;2.06;100.00;102087.91;4938772;29;20044;-69
2023/04/18 02:45:16;;;;;;;28.05;17.80;;;;;;;2.08;100.00;102084.28;4937590;29;20048;-71
2023/04/18 02:47:44;;;;;;;29.83;17.70;;;;;;;2.07;100.00;102087.00;4937704;29;20052;-69
2023/04/18 02:50:21;;;;;;;26.98;17.95;;;;;;;2.19;100.00;102092.56;4932226;29;20048;-70
2023/04/18 02:52:48;;;;;;;30.08;18.90;;;;;;;2.19;100.00;102094.34;4936739;29;20046;-71
2023/04/18 02:55:15;;;;;;;26.85;17.27;;;;;;;2.18;100.00;102097.94;4937870;29;20086;-70
2023/04/18 02:57:41;;;;;;;25.83;16.40;;;;;;;2.12;100.00;102095.56;4937436;29;20100;-69
2023/04/18 03:00:08;;;;;;;28.02;16.83;;;;;;;2.17;100.00;102098.88;4937532;29;20055;-72
2023/04/18 03:02:34;;;;;;;28.23;16.50;;;;;;;2.16;100.00;102099.78;4932179;29;20092;-70
2023/04/18 03:05:01;;;;;;;27.88;15.90;;;;;;;2.25;100.00;102102.00;4937569;29;20062;-71
2023/04/18 03:07:29;;;;;;;27.20;15.93;;;;;;;2.28;100.00;102101.88;4937626;29;20060;-71
2023/04/18 03:09:56;;;;;;;27.13;16.73;;;;;;;2.21;100.00;102102.25;4937399;29;20036;-71
2023/04/18 03:12:22;;;;;;;26.83;15.90;;;;;;;2.23;100.00;102108.31;4937955;29;20052;-69
2023/04/18 03:14:49;;;;;;;29.80;15.93;;;;;;;2.27;100.00;102109.88;4937468;29;20040;-71
2023/04/18 03:17:15;;;;;;;28.45;17.67;;;;;;;2.17;100.00;102105.03;4935185;29;20048;-69
2023/04/18 03:19:42;;;;;;;27.42;17.20;;;;;;;2.25;100.00;102109.09;4936839;29;20107;-71
2023/04/18 03:22:08;;;;;;;27.98;17.10;;;;;;;2.20;100.00;102109.34;4938087;29;20043;-70
2023/04/18 03:24:35;;;;;;;27.35;16.83;;;;;;;2.21;100.00;102113.69;4933779;29;20104;-70
2023/04/18 03:27:01;;;;;;;34.78;17.42;;;;;;;2.31;100.00;102109.69;4936294;29;20040;-71
2023/04/18 03:29:28;;;;;;;27.20;15.82;;;;;;;2.26;100.00;102114.31;4937287;29;20036;-71
2023/04/18 03:31:54;;;;;;;25.83;16.10;;;;;;;2.28;100.00;102112.47;4936930;29;20051;-71
2023/04/18 03:34:21;;;;;;;26.65;16.15;;;;;;;2.32;100.00;102113.19;4938611;29;20095;-70
2023/04/18 03:36:47;;;;;;;25.13;15.65;;;;;;;2.28;100.00;102101.03;4931164;29;20110;-71
2023/04/18 03:39:14;;;;;;;28.80;16.00;;;;;;;2.27;100.00;102108.09;4937664;29;20068;-71
2023/04/18 03:41:41;;;;;;;27.67;17.67;;;;;;;2.22;100.00;102111.91;4936429;29;20092;-70
2023/04/18 03:44:08;;;;;;;26.42;16.15;;;;;;;2.29;100.00;102113.31;4936650;29;20048;-71
2023/04/18 03:46:34;;;;;;;26.70;16.55;;;;;;;2.31;100.00;102099.09;4936494;29;20024;-70
2023/04/18 03:49:01;;;;;;;24.33;15.55;;;;;;;2.24;100.00;102108.25;4934316;29;20072;-71
2023/04/18 03:51:33;;;;;;;27.05;16.48;;;;;;;2.30;100.00;102115.03;4927682;29;20044;-73
2023/04/18 03:53:59;;;;;;;;;;;;;;;2.26;100.00;102114.31;4937440;29;20119;-71
2023/04/18 03:56:26;;;;;;;26.95;16.50;;;;;;;2.31;100.00;102112.31;4919235;29;19927;-71
2023/04/18 03:58:52;;;;;;;25.90;14.95;;;;;;;2.22;100.00;102112.75;4913572;29;20052;-71
2023/04/18 04:01:19;;;;;;;24.45;16.05;;;;;;;2.28;100.00;102115.13;4912001;29;20063;-71
2023/04/18 04:03:45;;;;;;;25.88;15.13;;;;;;;2.32;100.00;102123.78;4912338;29;20078;-71
2023/04/18 04:06:12;;;;;;;25.63;16.05;;;;;;;2.29;100.00;102122.13;4912243;29;20044;-71
2023/04/18 04:08:38;;;;;;;28.15;16.42;;;;;;;2.24;100.00;102132.09;4907811;29;20044;-70
2023/04/18 04:11:05;;;;;;;27.48;15.55;;;;;;;2.24;100.00;102125.94;4915682;29;20056;-74
2023/04/18 04:13:31;;;;;;;27.98;15.18;;;;;;;2.32;100.00;102127.28;4916170;29;20048;-76
2023/04/18 04:15:58;;;;;;;30.00;15.55;;;;;;;2.35;100.00;102124.47;4907434;29;20048;-77
2023/04/18 04:18:29;;;;;;;25.77;16.77;;;;;;;2.30;100.00;102131.78;4917129;29;20076;-77
2023/04/18 04:20:56;;;;;;;;;;;;;;;2.26;100.00;102134.66;4915844;29;20052;-73
2023/04/18 04:23:24;;;;;;;26.40;15.80;;;;;;;2.22;100.00;102128.63;4917690;29;20357;-75
2023/04/18 04:25:54;;;;;;;30.30;16.08;;;;;;;2.28;100.00;102138.94;4916319;29;20050;-75
2023/04/18 04:28:22;;;;;;;25.25;15.00;;;;;;;2.31;100.00;102127.34;4915974;29;20048;-74
2023/04/18 04:30:49;;;;;;;24.30;15.13;;;;;;;2.25;100.00;102133.78;4917696;29;20059;-76
2023/04/18 04:33:18;;;;;;;27.17;16.48;;;;;;;2.26;100.00;102134.66;4919443;29;20079;-77
2023/04/18 04:35:46;;;;;;;27.45;16.23;;;;;;;2.29;100.00;102137.16;4919826;29;20055;-76
2023/04/18 04:38:14;;;;;;;26.33;15.07;;;;;;;2.30;100.00;102130.91;4919495;29;20123;-78
2023/04/18 04:40:41;;;;;;;26.52;15.75;;;;;;;2.26;100.00;102135.50;4919758;29;20107;-78
2023/04/18 04:43:15;;;;;;;25.30;16.23;;;;;;;2.28;100.00;102138.94;4919306;29;20052;-76
2023/04/18 04:45:43;;;;;;;32.72;17.27;;;;;;;2.20;100.00;102151.69;4922338;29;20074;-76
2023/04/18 04:48:10;;;;;;;27.40;16.67;;;;;;;2.17;100.00;102146.53;4919362;29;20055;-77
2023/04/18 04:50:37;;;;;;;33.83;16.52;;;;;;;2.21;100.00;102149.91;4914931;29;20496;-75
2023/04/18 04:53:05;;;;;;;27.23;15.88;;;;;;;2.28;100.00;102156.63;4920204;29;20070;-75
2023/04/18 04:55:32;;;;;;;27.05;15.57;;;;;;;2.27;100.00;102150.47;4919418;29;20111;-75
2023/04/18 04:57:59;;;;;;;30.90;16.27;;;;;;;2.31;100.00;102145.91;4920035;29;20055;-74
2023/04/18 05:00:25;;;;;;;24.73;16.38;;;;;;;2.25;100.00;102143.53;4910708;29;20476;-74
2023/04/18 05:02:54;;;;;;;26.60;15.50;;;;;;;2.25;100.00;102147.03;4920523;29;20071;-77
2023/04/18 05:05:20;;;;;;;28.80;16.15;;;;;;;2.32;100.00;102150.25;4919771;29;20052;-76
2023/04/18 05:07:47;;;;;;;31.42;16.27;;;;;;;2.50;100.00;102148.53;4916834;29;20061;-76
2023/04/18 05:10:13;;;;;;;25.20;14.82;;;;;;;2.55;100.00;102157.13;4920578;29;20520;-77
2023/04/18 05:12:40;;;;;;;24.23;15.65;;;;;;;2.60;100.00;102160.41;4921622;29;20116;-77
2023/04/18 05:15:07;;;;;;;25.08;15.27;;;;;;;2.72;100.00;102157.19;4921841;29;20058;-77
2023/04/18 05:17:33;;;;;;;26.67;15.27;;;;;;;2.77;100.00;102162.25;4920533;29;20048;-77
2023/04/18 05:20:00;;;;;;;26.30;15.77;;;;;;;2.89;100.00;102162.50;4921234;29;20048;-76
2023/04/18 05:22:26;;;;;;;24.38;15.00;;;;;;;3.01;100.00;102165.50;4908189;29;20099;-77
2023/04/18 05:24:53;;;;;;;23.83;15.70;;;;;;;2.90;100.00;102158.91;4912966;29;20097;-76
2023/04/18 05:27:20;;;;;;;24.15;15.50;;;;;;;3.04;100.00;102160.91;4923065;29;20044;-77
2023/04/18 05:29:48;;;;;;;31.35;14.68;;;;;;;3.08;100.00;102170.41;4924268;29;20185;-76
2023/04/18 05:32:15;;;;;;;31.50;15.82;;;;;;;3.10;100.00;102159.72;4908292;29;20111;-77
2023/04/18 05:34:42;;;;;;;26.50;15.40;;;;;;;3.09;100.00;102160.66;4904288;29;20045;-77
2023/04/18 05:37:08;;;;;;;25.17;14.23;;;;;;;2.98;100.00;102165.63;4895822;29;20052;-76
2023/04/18 05:39:35;;;;;;;26.92;15.45;;;;;;;3.12;100.00;102173.75;4903115;29;20076;-77
2023/04/18 05:42:02;;;;;;;28.02;15.32;;;;;;;3.13;100.00;102170.16;4905781;29;20108;-76
2023/04/18 05:44:29;;;;;;;26.88;15.25;;;;;;;3.21;100.00;102177.75;4888097;29;20045;-74
2023/04/18 05:46:55;;;;;;;25.42;14.90;;;;;;;3.29;100.00;102172.91;4889469;29;20068;-77
2023/04/18 05:49:22;;;;;;;28.27;16.10;;;;;;;3.39;100.00;102177.69;4906026;29;20044;-77
2023/04/18 05:51:49;;;;;;;23.83;16.05;;;;;;;3.62;100.00;102179.16;4906776;29;20056;-77
2023/04/18 05:54:15;;;;;;;26.45;14.85;;;;;;;3.58;100.00;102179.38;4913339;29;20042;-71
2023/04/18 05:56:42;;;;;;;25.67;14.88;;;;;;;3.49;100.00;102170.13;4920254;29;20072;-71
2023/04/18 05:59:09;;;;;;;25.67;14.80;;;;;;;3.54;100.00;102176.03;4913067;29;20063;-71
2023/04/18 06:01:35;;;;;;;24.17;14.13;;;;;;;3.63;100.00;102170.25;4922918;29;20044;-71
2023/04/18 06:04:02;;;;;;;21.30;14.55;;;;;;;3.65;100.00;102175.47;4938043;29;20036;-72
2023/04/18 06:06:30;;;;;;;22.42;14.43;;;;;;;3.63;100.00;102178.22;4939255;29;20024;-73
2023/04/18 06:08:56;;;;;;;25.42;15.43;;;;;;;3.69;100.00;102178.81;4934721;29;20052;-72
2023/04/18 06:11:23;;;;;;;27.55;15.38;;;;;;;3.70;100.00;102176.09;4938669;29;20072;-72
2023/04/18 06:13:49;;;;;;;27.02;15.40;;;;;;;3.52;100.00;102182.38;4918928;29;20077;-73
2023/04/18 06:16:16;;;;;;;21.58;14.38;;;;;;;3.44;100.00;102189.84;4917200;29;20055;-73
2023/04/18 06:18:42;;;;;;;24.05;14.27;;;;;;;3.43;100.00;102189.00;4916676;29;20040;-71
2023/04/18 06:21:09;;;;;;;21.83;13.23;;;;;;;3.45;100.00;102180.94;4919512;29;20100;-72
2023/04/18 06:23:37;;;;;;;22.95;14.18;;;;;;;3.48;100.00;102186.09;4910684;29;20047;-71
2023/04/18 06:26:04;;;;;;;27.60;15.32;;;;;;;3.58;100.00;102182.03;4919067;29;20052;-72
2023/04/18 06:28:31;;;;;;;20.40;13.75;;;;;;;3.62;100.00;102194.25;4919285;29;20056;-72
2023/04/18 06:30:58;;;;;;;23.23;14.38;;;;;;;3.68;100.00;102182.44;4919737;29;20048;-71
2023/04/18 06:33:24;;;;;;;21.42;14.50;;;;;;;3.68;100.00;102196.53;4920107;29;20051;-72
2023/04/18 06:35:51;;;;;;;53.55;19.70;;;;;;;3.58;100.00;102190.00;4919558;29;20056;-71
2023/04/18 06:38:18;;;;;;;24.13;14.23;;;;;;;3.66;100.00;102184.31;4918854;29;20072;-71
2023/04/18 06:40:44;;;;;;;22.25;14.23;;;;;;;3.91;100.00;102189.19;4919373;29;20068;-71
2023/04/18 06:43:11;;;;;;;23.73;14.25;;;;;;;3.93;100.00;102196.16;4915088;29;20032;-73
2023/04/18 06:45:37;;;;;;;24.30;14.00;;;;;;;4.06;100.00;102193.69;4918882;29;20116;-71
2023/04/18 06:48:04;;;;;;;21.83;13.32;;;;;;;4.21;100.00;102195.53;4919595;29;20123;-72
2023/04/18 06:50:31;;;;;;;24.25;14.65;;;;;;;4.19;100.00;102200.06;4918117;29;20028;-72
2023/04/18 06:52:57;;;;;;;24.73;14.55;;;;;;;4.18;100.00;102198.34;4918952;29;20029;-71
2023/04/18 06:55:24;;;;;;;23.95;13.98;;;;;;;4.15;100.00;102198.50;4918580;29;20059;-70
2023/04/18 06:57:50;;;;;;;20.35;13.32;;;;;;;4.22;100.00;102201.69;4918876;29;20108;-72
2023/04/18 07:00:17;;;;;;;23.50;13.32;;;;;;;4.06;100.00;102205.16;4919796;29;20032;-70
2023/04/18 07:02:44;;;;;;;20.13;13.73;;;;;;;3.95;100.00;102204.88;4931777;29;20112;-71
2023/04/18 07:05:11;;;;;;;20.90;13.10;;;;;;;4.06;100.00;102199.84;4936777;29;20063;-71
2023/04/18 07:07:38;;;;;;;23.20;13.75;;;;;;;4.24;100.00;102199.78;4936912;29;20075;-70
2023/04/18 07:10:05;;;;;;;29.17;14.40;;;;;;;4.30;100.00;102202.13;4937170;29;20044;-72
2023/04/18 07:12:32;;;;;;;25.05;13.77;;;;;;;4.25;100.00;102205.03;4937694;29;20048;-72
2023/04/18 07:14:59;;;;;;;21.48;13.13;;;;;;;4.36;100.00;102201.81;4938146;29;20044;-71
2023/04/18 07:17:25;;;;;;;21.67;12.70;;;;;;;4.64;100.00;102201.16;4938351;29;20067;-70
2023/04/18 07:19:52;;;;;;;20.90;12.88;;;;;;;4.79;100.00;102204.75;4937986;29;20036;-71
2023/04/18 07:22:18;;;;;;;24.13;13.45;;;;;;;4.90;100.00;102201.50;4931466;29;20028;-72
2023/04/18 07:24:45;;;;;;;20.05;12.88;;;;;;;5.16;100.00;102202.69;4937724;29;20060;-71
2023/04/18 07:27:11;;;;;;;21.50;12.65;;;;;;;5.38;100.00;102202.28;4937717;29;20092;-73
2023/04/18 07:29:38;;;;;;;23.48;12.73;;;;;;;5.47;100.00;102202.59;4937335;29;20039;-72
2023/04/18 07:32:05;;;;;;;22.98;13.70;;;;;;;5.63;100.00;102199.88;4934920;29;20095;-73
2023/04/18 07:34:35;;;;;;;22.70;12.38;;;;;;;6.08;100.00;102199.81;4914086;29;20131;-73
2023/04/18 07:37:01;;;;;;;23.23;12.45;;;;;;;5.89;100.00;102195.63;4914282;29;20048;-74
2023/04/18 07:39:28;;;;;;;22.75;12.50;;;;;;;6.23;100.00;102199.75;4915220;29;20068;-72
2023/04/18 07:41:54;;;;;;;18.52;12.20;;;;;;;6.64;100.00;102200.78;4905298;29;20054;-74
2023/04/18 07:44:21;;;;;;;19.52;12.43;;;;;;;6.96;100.00;102212.03;4913864;29;20055;-72
2023/04/18 07:46:47;;;;;;;20.95;11.90;;;;;;;6.99;100.00;102200.31;4912939;29;20187;-73
2023/04/18 07:49:14;;;;;;;21.50;11.52;;;;;;;6.59;100.00;102203.72;4912355;29;20048;-73
2023/04/18 07:51:41;;;;;;;20.33;12.00;;;;;;;7.11;100.00;102200.34;4912416;29;20453;-72
2023/04/18 07:54:09;;;;;;;18.55;11.32;;;;;;;7.00;100.00;102208.19;4912358;29;20091;-74
2023/04/18 07:56:36;;;;;;;18.50;12.52;;;;;;;6.84;100.00;102205.69;4911017;29;20067;-73
2023/04/18 07:59:03;;;;;;;19.63;11.25;;;;;;;6.87;100.00;102212.63;4913458;29;20079;-73
2023/04/18 08:01:29;;;;;;;18.77;12.07;;;;;;;7.04;100.00;102203.50;4912359;29;20054;-73
2023/04/18 08:04:00;;;;;;;24.20;13.00;;;;;;;6.77;100.00;102203.50;4913341;29;20071;-73
2023/04/18 08:06:27;;;;;;;19.30;12.15;;;;;;;6.56;100.00;102211.06;4906505;29;20127;-74
2023/04/18 08:08:54;;;;;;;23.13;12.50;;;;;;;6.47;100.00;102201.84;4915987;29;20087;-74
2023/04/18 08:11:21;;;;;;;22.75;12.18;;;;;;;5.74;100.00;102210.75;4916065;29;20119;-74
2023/04/18 08:13:47;;;;;;;21.17;13.20;;;;;;;5.81;100.00;102200.59;4916230;29;20052;-74
2023/04/18 08:16:14;;;;;;;23.38;12.60;;;;;;;5.82;100.00;102212.09;4916378;29;20528;-74
2023/04/18 08:18:43;;;;;;;23.25;13.50;;;;;;;5.73;100.00;102214.38;4915957;29;20074;-74
2023/04/18 08:21:09;;;;;;;20.77;12.82;;;;;;;5.77;100.00;102204.38;4915639;29;20048;-74
2023/04/18 08:23:36;;;;;;;21.98;12.98;;;;;;;5.75;100.00;102204.47;4916088;29;20056;-74
2023/04/18 08:26:03;;;;;;;26.25;13.00;;;;;;;5.90;100.00;102200.00;4907558;29;20055;-74
2023/04/18 08:28:29;;;;;;;20.75;12.70;;;;;;;5.90;100.00;102202.66;4915134;29;20048;-74
2023/04/18 08:30:56;;;;;;;22.95;13.27;;;;;;;5.85;100.00;102201.25;4915128;29;20050;-74
2023/04/18 08:33:23;;;;;;;23.40;12.75;;;;;;;5.56;100.00;102205.66;4915675;29;20075;-74
2023/04/18 08:35:50;;;;;;;24.00;13.93;;;;;;;5.64;100.00;102209.59;4915699;29;20048;-74
2023/04/18 08:38:17;;;;;;;21.20;13.13;;;;;;;5.44;100.00;102209.91;4915957;29;20140;-74
2023/04/18 08:40:45;;;;;;;24.40;13.15;;;;;;;5.47;100.00;102207.06;4915423;29;20108;-73
2023/04/18 08:43:13;;;;;;;32.35;14.57;;;;;;;5.39;100.00;102212.00;4913059;29;20421;-73
2023/04/18 08:45:44;;;;;;;25.67;14.27;;;;;;;5.37;100.00;102208.56;4915621;29;20048;-75
2023/04/18 08:48:15;;;;;;;20.80;13.18;;;;;;;5.46;100.00;102216.00;4915414;29;20104;-74
2023/04/18 08:50:43;;;;;;;24.38;14.05;;;;;;;5.54;100.00;102211.06;4915033;29;20060;-74
2023/04/18 08:53:10;;;;;;;33.75;15.30;;;;;;;5.51;100.00;102213.91;4915669;29;20513;-74
2023/04/18 08:55:37;;;;;;;26.45;14.32;;;;;;;5.66;100.00;102212.13;4916430;29;20397;-72
2023/04/18 08:58:05;;;;;;;25.95;14.43;;;;;;;5.61;100.00;102222.22;4906433;29;20107;-74
2023/04/18 09:00:32;;;;;;;24.63;13.27;;;;;;;5.64;100.00;102209.59;4914744;29;20084;-73
2023/04/18 09:02:58;;;;;;;22.83;13.63;;;;;;;5.71;100.00;102210.94;4915145;29;20560;-74
2023/04/18 09:05:26;;;;;;;24.23;13.88;;;;;;;5.64;100.00;102211.38;4915260;29;20051;-74
2023/04/18 09:07:54;;;;;;;24.25;14.05;;;;;;;5.75;100.00;102212.44;4911234;29;20505;-74
2023/04/18 09:10:26;;;;;;;28.35;13.23;;;;;;;5.87;100.00;102210.00;4915555;29;20052;-74
2023/04/18 09:12:53;;;;;;;26.40;14.50;;;;;;;5.83;100.00;102203.13;4915315;29;20104;-74
2023/04/18 09:15:22;;;;;;;24.35;14.15;;;;;;;6.00;100.00;102200.31;4914864;29;20048;-74
2023/04/18 09:17:54;;;;;;;24.20;13.32;;;;;;;6.11;100.00;102203.16;4914962;29;20127;-74
2023/04/18 09:20:42;;;;;;;21.77;12.57;;;;;;;6.08;100.00;102219.34;4905398;29;20059;-73
2023/04/18 09:23:13;;;;;;;23.95;13.18;;;;;;;6.02;100.00;102216.22;4914716;29;20111;-73
2023/04/18 09:25:47;;;;;;;32.87;14.30;;;;;;;6.05;100.00;102214.22;4911429;29;20115;-73
2023/04/18 09:28:30;;;;;;;26.00;14.40;;;;;;;6.26;100.00;102221.88;4915820;29;20349;-74
2023/04/18 09:31:08;;;;;;;22.73;12.45;;;;;;;6.29;100.00;102211.00;4915224;29;20055;-74
2023/04/18 09:33:35;;;;;;;22.88;13.57;;;;;;;6.55;100.00;102214.69;4914823;29;20415;-74
2023/04/18 09:36:20;;;;;;;21.75;13.60;;;;;;;6.67;100.00;102206.78;4914780;29;20374;-73
2023/04/18 09:38:48;;;;;;;22.95;13.05;;;;;;;7.05;100.00;102207.88;4914074;29;20059;-74
2023/04/18 09:41:15;;;;;;;23.85;12.52;;;;;;;7.27;100.00;102210.00;4911327;29;20052;-74
2023/04/18 09:43:46;;;;;;;27.10;12.27;;;;;;;7.63;100.00;102204.00;4914588;29;20056;-73
2023/04/18 09:46:16;;;;;;;22.48;12.68;;;;;;;7.66;100.00;102204.63;4914297;29;20104;-73
2023/04/18 09:48:43;;;;;;;20.00;12.43;;;;;;;7.85;100.00;102201.59;4914721;29;20458;-73
2023/04/18 09:51:14;;;;;;;18.98;12.38;;;;;;;7.76;100.00;102206.69;4914727;29;20040;-74
2023/04/18 09:53:46;;;;;;;18.90;12.18;;;;;;;7.74;100.00;102200.56;4913757;29;20493;-74
2023/04/18 09:56:26;;;;;;;20.50;12.10;;;;;;;7.69;100.00;102205.41;4914911;29;20048;-74
2023/04/18 09:59:06;;;;;;;20.02;12.48;;;;;;;7.84;100.00;102193.66;4914866;29;20413;-73
2023/04/18 10:01:33;;;;;;;23.33;12.02;;;;;;;7.92;100.00;102195.84;4914303;29;20135;-74
2023/04/18 10:04:02;;;;;;;21.20;11.60;;;;;;;8.05;100.00;102199.34;4914474;29;20048;-74
2023/04/18 10:06:30;;;;;;;18.83;11.25;;;;;;;8.26;100.00;102196.97;4914999;29;20052;-75
2023/04/18 10:08:57;;;;;;;19.48;12.30;;;;;;;8.36;100.00;102200.69;4914922;29;20062;-74
2023/04/18 10:11:24;;;;;;;21.35;12.65;;;;;;;8.25;100.00;102197.94;4913954;29;20040;-74
2023/04/18 10:13:56;;;;;;;20.20;11.80;;;;;;;8.01;100.00;102196.03;4914202;29;20083;-74
2023/04/18 10:16:23;;;;;;;17.02;11.75;;;;;;;7.94;100.00;102199.25;4914532;29;20139;-74
2023/04/18 10:18:50;;;;;;;17.17;11.77;;;;;;;7.94;100.00;102200.09;4914229;29;20059;-74
2023/04/18 10:21:17;;;;;;;20.65;12.23;;;;;;;7.85;100.00;102196.25;4905059;29;20087;-75
2023/04/18 10:23:47;;;;;;;19.55;11.60;;;;;;;7.97;100.00;102191.88;4912940;29;20233;-74
2023/04/18 10:26:14;;;;;;;19.27;12.40;;;;;;;7.75;100.00;102194.28;4913824;29;20532;-74
2023/04/18 10:28:59;;;;;;;22.23;12.70;;;;;;;7.78;100.00;102200.28;4896825;29;20051;-74
2023/04/18 10:31:28;;;;;;;18.38;12.35;;;;;;;8.00;100.00;102194.31;4914001;29;20127;-74
2023/04/18 10:33:59;;;;;;;22.00;12.18;;;;;;;8.21;100.00;102185.75;4913519;29;20135;-73
2023/04/18 10:36:29;;;;;;;51.60;18.35;;;;;;;8.34;100.00;102189.28;4913836;29;20080;-74
2023/04/18 10:39:01;;;;;;;20.05;12.57;;;;;;;8.37;100.00;102187.22;4913930;29;20426;-74
2023/04/18 10:41:30;;;;;;;17.83;11.85;;;;;;;8.45;100.00;102192.03;4914366;29;20076;-74
2023/04/18 10:44:08;;;;;;;18.42;11.32;;;;;;;8.63;100.00;102187.16;4913667;29;20052;-74
2023/04/18 10:46:40;;;;;;;18.65;11.65;;;;;;;8.89;100.00;102193.28;4912723;29;20044;-74
2023/04/18 10:49:14;;;;;;;21.25;12.43;;;;;;;8.95;100.00;102198.16;4913634;29;20055;-74
2023/04/18 10:51:52;;;;;;;21.15;11.57;;;;;;;8.89;100.00;102179.91;4912514;29;20135;-74
2023/04/18 10:54:45;;;;;;;19.23;11.43;;;;;;;9.08;100.00;102196.28;4904137;29;20158;-75
2023/04/18 10:57:12;;;;;;;23.13;12.27;;;;;;;9.00;100.00;102193.34;4913009;29;20050;-75
2023/04/18 10:59:46;;;;;;;20.90;12.57;;;;;;;8.88;100.00;102193.38;4913922;29;20144;-74
2023/04/18 11:02:32;;;;;;;19.13;12.30;;;;;;;8.60;100.00;102193.56;4896977;29;20086;-74
2023/04/18 11:05:01;;;;;;;18.85;11.50;;;;;;;8.34;100.00;102191.94;4911618;29;20473;-74
2023/04/18 11:07:43;;;;;;;25.13;12.20;;;;;;;8.32;100.00;102194.72;4895981;29;20048;-74
2023/04/18 11:10:11;;;;;;;19.30;11.35;;;;;;;8.07;100.00;102184.91;4912138;29;20111;-74
2023/04/18 11:12:39;;;;;;;19.33;11.02;;;;;;;8.36;100.00;102190.00;4912809;29;20052;-74